createdAt,value
2018-05-18T00:00:19.146Z,1015.12
2018-05-18T00:01:19.124Z,1015.10
2018-05-18T00:02:19.115Z,1015.10
2018-05-18T00:03:19.101Z,1015.04
2018-05-18T00:04:19.083Z,1015.10
2018-05-18T00:05:19.069Z,1015.09
2018-05-18T00:06:19.052Z,1015.10
2018-05-18T00:07:19.036Z,1015.09
2018-05-18T00:08:19.013Z,1015.08
2018-05-18T00:09:19.004Z,1015.11
2018-05-18T00:10:18.994Z,1015.12
2018-05-18T00:11:18.969Z,1015.10
2018-05-18T00:12:18.952Z,1015.11
2018-05-18T00:13:18.941Z,1015.10
2018-05-18T00:14:18.924Z,1015.07
2018-05-18T00:15:18.911Z,1015.10
2018-05-18T00:16:18.896Z,1015.10
2018-05-18T00:17:18.880Z,1015.08
2018-05-18T00:18:18.858Z,1015.10
2018-05-18T00:19:18.843Z,1015.09
2018-05-18T00:20:18.824Z,1015.10
2018-05-18T00:21:18.814Z,1015.07
2018-05-18T00:22:18.798Z,1015.08
2018-05-18T00:23:18.779Z,1015.04
2018-05-18T00:24:18.766Z,1015.05
2018-05-18T00:25:18.753Z,1015.03
2018-05-18T00:26:18.728Z,1015.03
2018-05-18T00:27:18.718Z,1014.99
2018-05-18T00:28:18.698Z,1015.03
2018-05-18T00:29:18.686Z,1015.02
2018-05-18T00:30:18.672Z,1015.01
2018-05-18T00:31:18.647Z,1014.98
2018-05-18T00:32:18.636Z,1014.98
2018-05-18T00:33:18.613Z,1015.02
2018-05-18T00:34:18.608Z,1014.99
2018-05-18T00:35:18.586Z,1014.99
2018-05-18T00:36:18.573Z,1014.94
2018-05-18T00:37:18.550Z,1014.98
2018-05-18T00:38:18.550Z,1015.01
2018-05-18T00:39:18.525Z,1014.99
2018-05-18T00:40:18.506Z,1014.99
2018-05-18T00:41:18.490Z,1015.00
2018-05-18T00:42:18.483Z,1014.99
2018-05-18T00:43:18.473Z,1014.99
2018-05-18T00:44:18.448Z,1014.99
2018-05-18T00:45:18.486Z,1014.99
2018-05-18T00:46:18.416Z,1014.97
2018-05-18T00:47:18.406Z,1014.98
2018-05-18T00:48:18.385Z,1014.99
2018-05-18T00:49:18.367Z,1014.94
2018-05-18T00:50:18.344Z,1014.98
2018-05-18T00:51:18.336Z,1015.00
2018-05-18T00:52:18.317Z,1014.98
2018-05-18T00:53:18.297Z,1014.98
2018-05-18T00:54:18.289Z,1014.98
2018-05-18T00:55:18.323Z,1014.93
2018-05-18T00:56:18.262Z,1014.93
2018-05-18T00:57:18.240Z,1014.95
2018-05-18T00:58:18.217Z,1014.96
2018-05-18T00:59:18.208Z,1014.97
2018-05-18T01:00:18.187Z,1014.91
2018-05-18T01:01:18.175Z,1014.95
2018-05-18T01:02:18.160Z,1014.93
2018-05-18T01:03:18.149Z,1014.90
2018-05-18T01:04:18.127Z,1014.85
2018-05-18T01:05:18.105Z,1014.83
2018-05-18T01:06:18.095Z,1014.88
2018-05-18T01:07:18.082Z,1014.88
2018-05-18T01:08:18.063Z,1014.88
2018-05-18T01:09:18.053Z,1014.89
2018-05-18T01:10:18.030Z,1014.85
2018-05-18T01:11:18.018Z,1014.84
2018-05-18T01:12:18.002Z,1014.83
2018-05-18T01:13:17.983Z,1014.83
2018-05-18T01:14:17.964Z,1014.85
2018-05-18T01:15:17.950Z,1014.84
2018-05-18T01:16:17.941Z,1014.84
2018-05-18T01:17:17.921Z,1014.84
2018-05-18T01:18:17.903Z,1014.84
2018-05-18T01:19:17.887Z,1014.82
2018-05-18T01:20:17.872Z,1014.84
2018-05-18T01:21:17.846Z,1014.80
2018-05-18T01:22:17.834Z,1014.81
2018-05-18T01:23:17.818Z,1014.77
2018-05-18T01:24:17.810Z,1014.81
2018-05-18T01:25:17.788Z,1014.84
2018-05-18T01:26:17.771Z,1014.82
2018-05-18T01:27:17.750Z,1014.89
2018-05-18T01:28:17.741Z,1014.85
2018-05-18T01:29:17.725Z,1014.80
2018-05-18T01:30:17.722Z,1014.83
2018-05-18T01:31:17.693Z,1014.84
2018-05-18T01:32:17.678Z,1014.80
2018-05-18T01:33:17.652Z,1014.82
2018-05-18T01:34:17.636Z,1014.85
2018-05-18T01:35:17.629Z,1014.86
2018-05-18T01:36:17.604Z,1014.87
2018-05-18T01:37:17.597Z,1014.85
2018-05-18T01:38:17.578Z,1014.89
2018-05-18T01:39:17.559Z,1014.90
2018-05-18T01:40:17.543Z,1014.88
2018-05-18T01:41:17.528Z,1014.90
2018-05-18T01:42:17.521Z,1014.88
2018-05-18T01:43:17.503Z,1014.89
2018-05-18T01:44:17.479Z,1014.85
2018-05-18T01:45:17.458Z,1014.89
2018-05-18T01:46:17.448Z,1014.87
2018-05-18T01:47:17.430Z,1014.83
2018-05-18T01:49:17.412Z,1014.81
2018-05-18T01:50:17.377Z,1014.80
2018-05-18T01:51:17.358Z,1014.80
2018-05-18T01:52:17.411Z,1014.80
2018-05-18T01:53:17.332Z,1014.79
2018-05-18T01:54:17.318Z,1014.83
2018-05-18T01:55:17.304Z,1014.80
2018-05-18T01:56:17.287Z,1014.81
2018-05-18T01:57:17.265Z,1014.84
2018-05-18T01:58:17.259Z,1014.81
2018-05-18T01:59:17.228Z,1014.82
2018-05-18T02:00:17.218Z,1014.83
2018-05-18T02:01:17.201Z,1014.79
2018-05-18T02:02:17.193Z,1014.77
2018-05-18T02:03:17.167Z,1014.77
2018-05-18T02:04:17.159Z,1014.80
2018-05-18T02:05:17.138Z,1014.81
2018-05-18T02:06:17.122Z,1014.82
2018-05-18T02:07:17.101Z,1014.80
2018-05-18T02:08:17.093Z,1014.80
2018-05-18T02:09:17.070Z,1014.77
2018-05-18T02:10:17.054Z,1014.77
2018-05-18T02:11:17.036Z,1014.73
2018-05-18T02:12:17.014Z,1014.73
2018-05-18T02:13:17.007Z,1014.76
2018-05-18T02:14:16.987Z,1014.75
2018-05-18T02:15:16.972Z,1014.73
2018-05-18T02:16:16.953Z,1014.76
2018-05-18T02:17:16.940Z,1014.78
2018-05-18T02:18:16.918Z,1014.79
2018-05-18T02:19:16.900Z,1014.79
2018-05-18T02:20:16.886Z,1014.80
2018-05-18T02:21:16.870Z,1014.78
2018-05-18T02:22:16.856Z,1014.80
2018-05-18T02:23:16.834Z,1014.82
2018-05-18T02:24:16.819Z,1014.78
2018-05-18T02:25:16.808Z,1014.79
2018-05-18T02:26:16.867Z,1014.79
2018-05-18T02:27:16.781Z,1014.79
2018-05-18T02:28:16.763Z,1014.80
2018-05-18T02:29:16.743Z,1014.87
2018-05-18T02:30:16.724Z,1014.81
2018-05-18T02:31:16.706Z,1014.84
2018-05-18T02:32:16.692Z,1014.82
2018-05-18T02:33:16.677Z,1014.83
2018-05-18T02:34:16.658Z,1014.78
2018-05-18T02:35:16.636Z,1014.80
2018-05-18T02:36:16.697Z,1014.79
2018-05-18T02:37:16.682Z,1014.78
2018-05-18T02:38:16.604Z,1014.81
2018-05-18T02:39:16.579Z,1014.76
2018-05-18T02:40:16.576Z,1014.73
2018-05-18T02:41:16.544Z,1014.75
2018-05-18T02:42:16.607Z,1014.72
2018-05-18T02:43:16.509Z,1014.71
2018-05-18T02:44:16.586Z,1014.72
2018-05-18T02:45:16.481Z,1014.73
2018-05-18T02:46:16.474Z,1014.75
2018-05-18T02:47:16.447Z,1014.75
2018-05-18T02:48:16.447Z,1014.73
2018-05-18T02:49:16.418Z,1014.77
2018-05-18T02:50:16.457Z,1014.73
2018-05-18T02:51:16.379Z,1014.74
2018-05-18T02:52:16.468Z,1014.69
2018-05-18T02:53:16.349Z,1014.74
2018-05-18T02:54:16.340Z,1014.73
2018-05-18T02:55:16.316Z,1014.75
2018-05-18T02:56:16.351Z,1014.72
2018-05-18T02:57:16.291Z,1014.72
2018-05-18T02:58:16.271Z,1014.74
2018-05-18T02:59:16.254Z,1014.71
2018-05-18T03:00:16.228Z,1014.73
2018-05-18T03:01:16.219Z,1014.75
2018-05-18T03:02:16.202Z,1014.71
2018-05-18T03:03:16.191Z,1014.70
2018-05-18T03:04:16.168Z,1014.71
2018-05-18T03:05:16.151Z,1014.71
2018-05-18T03:06:16.135Z,1014.71
2018-05-18T03:07:16.117Z,1014.73
2018-05-18T03:08:16.103Z,1014.73
2018-05-18T03:09:16.089Z,1014.74
2018-05-18T03:10:16.068Z,1014.74
2018-05-18T03:11:16.049Z,1014.76
2018-05-18T03:12:16.038Z,1014.81
2018-05-18T03:13:16.027Z,1014.79
2018-05-18T03:14:16.001Z,1014.75
2018-05-18T03:15:15.995Z,1014.73
2018-05-18T03:16:15.968Z,1014.75
2018-05-18T03:17:15.956Z,1014.76
2018-05-18T03:18:15.944Z,1014.79
2018-05-18T03:19:15.921Z,1014.79
2018-05-18T03:20:15.898Z,1014.77
2018-05-18T03:21:15.891Z,1014.78
2018-05-18T03:22:15.873Z,1014.81
2018-05-18T03:23:15.853Z,1014.82
2018-05-18T03:24:15.847Z,1014.84
2018-05-18T03:25:15.821Z,1014.76
2018-05-18T03:26:15.808Z,1014.76
2018-05-18T03:27:15.783Z,1014.74
2018-05-18T03:28:15.782Z,1014.72
2018-05-18T03:29:15.763Z,1014.70
2018-05-18T03:30:15.739Z,1014.74
2018-05-18T03:31:15.727Z,1014.75
2018-05-18T03:32:15.699Z,1014.73
2018-05-18T03:33:15.683Z,1014.74
2018-05-18T03:34:15.670Z,1014.82
2018-05-18T03:35:15.652Z,1014.80
2018-05-18T03:36:15.638Z,1014.82
2018-05-18T03:37:15.624Z,1014.79
2018-05-18T03:38:15.605Z,1014.81
2018-05-18T03:39:15.602Z,1014.81
2018-05-18T03:40:15.567Z,1014.83
2018-05-18T03:41:15.547Z,1014.83
2018-05-18T03:42:15.590Z,1014.83
2018-05-18T03:43:15.522Z,1014.79
2018-05-18T03:44:15.503Z,1014.81
2018-05-18T03:45:15.487Z,1014.81
2018-05-18T03:46:15.471Z,1014.79
2018-05-18T03:47:15.465Z,1014.79
2018-05-18T03:48:15.441Z,1014.80
2018-05-18T03:49:15.419Z,1014.77
2018-05-18T03:50:15.409Z,1014.83
2018-05-18T03:51:15.383Z,1014.80
2018-05-18T03:52:15.419Z,1014.85
2018-05-18T03:53:15.348Z,1014.83
2018-05-18T03:54:15.340Z,1014.84
2018-05-18T03:55:15.316Z,1014.85
2018-05-18T03:56:15.304Z,1014.87
2018-05-18T03:57:15.283Z,1014.91
2018-05-18T03:58:15.270Z,1014.93
2018-05-18T03:59:15.256Z,1014.95
2018-05-18T04:00:15.242Z,1014.93
2018-05-18T04:01:15.221Z,1014.95
2018-05-18T04:02:15.198Z,1014.95
2018-05-18T04:03:15.188Z,1014.97
2018-05-18T04:04:15.172Z,1014.95
2018-05-18T04:05:15.163Z,1014.98
2018-05-18T04:06:15.147Z,1014.95
2018-05-18T04:07:15.118Z,1014.97
2018-05-18T04:08:15.104Z,1014.94
2018-05-18T04:09:15.103Z,1014.97
2018-05-18T04:10:15.084Z,1014.99
2018-05-18T04:11:15.064Z,1014.98
2018-05-18T04:12:15.035Z,1014.96
2018-05-18T04:13:15.023Z,1014.97
2018-05-18T04:14:15.023Z,1014.99
2018-05-18T04:15:14.995Z,1014.99
2018-05-18T04:16:14.970Z,1014.97
2018-05-18T04:17:14.973Z,1015.04
2018-05-18T04:18:14.944Z,1015.01
2018-05-18T04:19:14.917Z,1015.03
2018-05-18T04:20:14.904Z,1015.03
2018-05-18T04:21:14.885Z,1015.05
2018-05-18T04:22:14.872Z,1015.06
2018-05-18T04:23:14.860Z,1015.06
2018-05-18T04:24:14.831Z,1015.07
2018-05-18T04:25:14.815Z,1015.07
2018-05-18T04:26:14.810Z,1015.07
2018-05-18T04:27:14.798Z,1015.06
2018-05-18T04:28:14.774Z,1015.07
2018-05-18T04:29:14.757Z,1015.07
2018-05-18T04:30:14.888Z,1015.04
2018-05-18T04:31:14.722Z,1015.12
2018-05-18T04:32:14.710Z,1015.12
2018-05-18T04:33:14.687Z,1015.10
2018-05-18T04:34:14.671Z,1015.12
2018-05-18T04:35:14.656Z,1015.16
2018-05-18T04:36:14.641Z,1015.11
2018-05-18T04:37:14.618Z,1015.14
2018-05-18T04:38:14.612Z,1015.13
2018-05-18T04:39:14.583Z,1015.14
2018-05-18T04:40:14.573Z,1015.13
2018-05-18T04:41:14.552Z,1015.18
2018-05-18T04:42:14.538Z,1015.16
2018-05-18T04:43:14.526Z,1015.18
2018-05-18T04:44:14.506Z,1015.17
2018-05-18T04:45:14.490Z,1015.16
2018-05-18T04:46:14.471Z,1015.16
2018-05-18T04:47:14.460Z,1015.19
2018-05-18T04:48:14.444Z,1015.18
2018-05-18T04:49:14.427Z,1015.18
2018-05-18T04:50:14.409Z,1015.23
2018-05-18T04:51:14.389Z,1015.20
2018-05-18T04:52:14.377Z,1015.22
2018-05-18T04:53:14.358Z,1015.23
2018-05-18T04:54:14.342Z,1015.23
2018-05-18T04:55:14.322Z,1015.30
2018-05-18T04:56:14.310Z,1015.31
2018-05-18T04:57:14.291Z,1015.26
2018-05-18T04:58:14.271Z,1015.27
2018-05-18T04:59:14.264Z,1015.25
2018-05-18T05:00:14.247Z,1015.21
2018-05-18T05:01:14.226Z,1015.28
2018-05-18T05:02:14.209Z,1015.26
2018-05-18T05:03:14.196Z,1015.27
2018-05-18T05:04:14.173Z,1015.25
2018-05-18T05:05:14.160Z,1015.27
2018-05-18T05:06:14.142Z,1015.23
2018-05-18T05:07:14.129Z,1015.24
2018-05-18T05:08:14.109Z,1015.24
2018-05-18T05:09:14.093Z,1015.26
2018-05-18T05:10:14.081Z,1015.25
2018-05-18T05:11:14.055Z,1015.28
2018-05-18T05:12:14.044Z,1015.28
2018-05-18T05:13:14.022Z,1015.29
2018-05-18T05:14:14.013Z,1015.29
2018-05-18T05:15:13.993Z,1015.33
2018-05-18T05:16:13.980Z,1015.35
2018-05-18T05:17:13.958Z,1015.35
2018-05-18T05:18:13.938Z,1015.37
2018-05-18T05:19:13.929Z,1015.37
2018-05-18T05:20:13.913Z,1015.40
2018-05-18T05:21:13.890Z,1015.41
2018-05-18T05:22:13.880Z,1015.44
2018-05-18T05:23:13.864Z,1015.45
2018-05-18T05:24:13.855Z,1015.46
2018-05-18T05:25:13.828Z,1015.50
2018-05-18T05:26:13.813Z,1015.48
2018-05-18T05:27:13.794Z,1015.49
2018-05-18T05:28:13.784Z,1015.49
2018-05-18T05:29:13.768Z,1015.46
2018-05-18T05:30:13.751Z,1015.48
2018-05-18T05:31:13.743Z,1015.51
2018-05-18T05:32:13.714Z,1015.48
2018-05-18T05:33:13.699Z,1015.48
2018-05-18T05:34:13.678Z,1015.52
2018-05-18T05:35:13.666Z,1015.53
2018-05-18T05:36:13.649Z,1015.52
2018-05-18T05:37:13.644Z,1015.56
2018-05-18T05:38:13.624Z,1015.54
2018-05-18T05:39:13.601Z,1015.55
2018-05-18T05:40:13.589Z,1015.55
2018-05-18T05:41:13.573Z,1015.57
2018-05-18T05:42:13.554Z,1015.56
2018-05-18T05:43:13.544Z,1015.53
2018-05-18T05:44:13.521Z,1015.54
2018-05-18T05:45:13.509Z,1015.59
2018-05-18T05:46:13.551Z,1015.56
2018-05-18T05:47:13.474Z,1015.57
2018-05-18T05:48:13.463Z,1015.56
2018-05-18T05:49:13.512Z,1015.57
2018-05-18T05:50:13.425Z,1015.56
2018-05-18T05:51:13.413Z,1015.58
2018-05-18T05:52:13.397Z,1015.56
2018-05-18T05:53:13.386Z,1015.60
2018-05-18T05:54:13.361Z,1015.57
2018-05-18T05:55:13.339Z,1015.57
2018-05-18T05:56:13.321Z,1015.56
2018-05-18T05:57:13.313Z,1015.59
2018-05-18T05:58:13.304Z,1015.63
2018-05-18T05:59:13.284Z,1015.62
2018-05-18T06:00:13.274Z,1015.61
2018-05-18T06:01:13.254Z,1015.64
2018-05-18T06:02:13.229Z,1015.63
2018-05-18T06:03:13.218Z,1015.65
2018-05-18T06:04:13.208Z,1015.66
2018-05-18T06:05:13.195Z,1015.65
2018-05-18T06:06:13.173Z,1015.64
2018-05-18T06:07:13.153Z,1015.63
2018-05-18T06:08:13.150Z,1015.71
2018-05-18T06:09:13.120Z,1015.68
2018-05-18T06:10:13.112Z,1015.74
2018-05-18T06:11:13.094Z,1015.67
2018-05-18T06:12:13.155Z,1015.68
2018-05-18T06:13:13.058Z,1015.74
2018-05-18T06:14:13.057Z,1015.73
2018-05-18T06:15:13.033Z,1015.72
2018-05-18T06:16:13.013Z,1015.68
2018-05-18T06:17:13.005Z,1015.70
2018-05-18T06:18:12.977Z,1015.70
2018-05-18T06:19:12.966Z,1015.72
2018-05-18T06:20:12.952Z,1015.70
2018-05-18T06:21:12.930Z,1015.69
2018-05-18T06:22:12.926Z,1015.71
2018-05-18T06:23:12.904Z,1015.73
2018-05-18T06:24:12.888Z,1015.75
2018-05-18T06:25:12.873Z,1015.81
2018-05-18T06:26:12.857Z,1015.81
2018-05-18T06:27:12.844Z,1015.79
2018-05-18T06:28:12.911Z,1015.82
2018-05-18T06:29:12.834Z,1015.82
2018-05-18T06:30:12.792Z,1015.82
2018-05-18T06:31:12.777Z,1015.84
2018-05-18T06:32:12.768Z,1015.87
2018-05-18T06:33:12.751Z,1015.88
2018-05-18T06:34:12.738Z,1015.87
2018-05-18T06:35:12.830Z,1015.89
2018-05-18T06:36:12.704Z,1015.91
2018-05-18T06:37:12.694Z,1015.91
2018-05-18T06:38:12.678Z,1015.96
2018-05-18T06:39:12.660Z,1015.94
2018-05-18T06:40:12.646Z,1015.96
2018-05-18T06:41:12.637Z,1015.95
2018-05-18T06:42:12.614Z,1015.97
2018-05-18T06:43:12.596Z,1015.97
2018-05-18T06:44:12.586Z,1015.96
2018-05-18T06:45:12.568Z,1015.97
2018-05-18T06:46:12.549Z,1015.98
2018-05-18T06:47:12.537Z,1015.91
2018-05-18T06:48:12.523Z,1015.97
2018-05-18T06:49:12.507Z,1016.00
2018-05-18T06:50:12.497Z,1015.98
2018-05-18T06:51:12.479Z,1015.96
2018-05-18T06:52:12.466Z,1015.93
2018-05-18T06:53:12.447Z,1015.92
2018-05-18T06:54:12.431Z,1015.92
2018-05-18T06:55:12.421Z,1015.89
2018-05-18T06:56:12.405Z,1015.93
2018-05-18T06:57:12.386Z,1015.96
2018-05-18T06:58:12.380Z,1015.97
2018-05-18T06:59:12.360Z,1015.94
2018-05-18T07:00:12.350Z,1015.96
2018-05-18T07:01:12.327Z,1015.97
2018-05-18T07:02:12.322Z,1015.98
2018-05-18T07:03:12.300Z,1016.00
2018-05-18T07:04:12.286Z,1016.00
2018-05-18T07:05:12.272Z,1016.03
2018-05-18T07:06:12.255Z,1016.03
2018-05-18T07:07:12.255Z,1016.00
2018-05-18T07:08:12.227Z,1016.08
2018-05-18T07:09:12.213Z,1016.06
2018-05-18T07:10:12.191Z,1016.07
2018-05-18T07:11:12.178Z,1016.11
2018-05-18T07:12:12.164Z,1016.07
2018-05-18T07:13:12.153Z,1016.09
2018-05-18T07:14:12.143Z,1016.07
2018-05-18T07:15:12.133Z,1016.08
2018-05-18T07:16:12.109Z,1016.08
2018-05-18T07:17:12.095Z,1016.03
2018-05-18T07:18:12.079Z,1016.02
2018-05-18T07:19:12.061Z,1016.04
2018-05-18T07:20:12.046Z,1016.02
2018-05-18T07:21:12.036Z,1016.05
2018-05-18T07:22:12.030Z,1016.01
2018-05-18T07:23:12.011Z,1016.01
2018-05-18T07:24:11.998Z,1015.99
2018-05-18T07:25:11.974Z,1016.04
2018-05-18T07:26:11.966Z,1016.08
2018-05-18T07:27:11.953Z,1016.00
2018-05-18T07:28:11.944Z,1016.03
2018-05-18T07:29:11.968Z,1016.06
2018-05-18T07:30:11.967Z,1016.09
2018-05-18T07:31:11.894Z,1016.12
2018-05-18T07:32:11.883Z,1016.08
2018-05-18T07:33:11.869Z,1016.15
2018-05-18T07:34:11.858Z,1016.16
2018-05-18T07:35:11.836Z,1016.18
2018-05-18T07:36:11.868Z,1016.22
2018-05-18T07:37:11.807Z,1016.21
2018-05-18T07:38:11.800Z,1016.18
2018-05-18T07:39:11.789Z,1016.18
2018-05-18T07:40:11.775Z,1016.14
2018-05-18T07:41:11.769Z,1016.09
2018-05-18T07:42:11.749Z,1016.17
2018-05-18T07:43:11.737Z,1016.11
2018-05-18T07:44:11.730Z,1016.15
2018-05-18T07:45:11.712Z,1016.14
2018-05-18T07:46:11.696Z,1016.15
2018-05-18T07:47:11.682Z,1016.13
2018-05-18T07:48:11.666Z,1016.13
2018-05-18T07:49:11.656Z,1016.10
2018-05-18T07:50:11.716Z,1016.14
2018-05-18T07:51:11.631Z,1016.13
2018-05-18T07:52:11.621Z,1016.14
2018-05-18T07:53:11.615Z,1016.19
2018-05-18T07:54:11.587Z,1016.20
2018-05-18T07:55:11.580Z,1016.19
2018-05-18T07:56:11.574Z,1016.18
2018-05-18T07:57:11.561Z,1016.20
2018-05-18T07:58:11.541Z,1016.17
2018-05-18T07:59:11.525Z,1016.17
2018-05-18T08:00:11.507Z,1016.17
2018-05-18T08:01:11.501Z,1016.16
2018-05-18T08:02:11.488Z,1016.15
2018-05-18T08:03:11.468Z,1016.17
2018-05-18T08:04:11.458Z,1016.16
2018-05-18T08:05:11.446Z,1016.18
2018-05-18T08:06:11.432Z,1016.17
2018-05-18T08:07:11.428Z,1016.14
2018-05-18T08:08:11.418Z,1016.12
2018-05-18T08:09:11.411Z,1016.18
2018-05-18T08:10:11.382Z,1016.12
2018-05-18T08:11:11.360Z,1016.20
2018-05-18T08:12:11.349Z,1016.26
2018-05-18T08:13:11.336Z,1016.20
2018-05-18T08:14:11.326Z,1016.20
2018-05-18T08:15:11.338Z,1016.22
2018-05-18T08:16:11.301Z,1016.27
2018-05-18T08:17:11.348Z,1016.28
2018-05-18T08:18:11.276Z,1016.26
2018-05-18T08:19:11.266Z,1016.31
2018-05-18T08:20:11.252Z,1016.40
2018-05-18T08:21:11.233Z,1016.34
2018-05-18T08:22:11.234Z,1016.32
2018-05-18T08:23:11.205Z,1016.34
2018-05-18T08:24:11.197Z,1016.34
2018-05-18T08:25:11.179Z,1016.33
2018-05-18T08:26:11.173Z,1016.30
2018-05-18T08:27:11.183Z,1016.40
2018-05-18T08:28:11.146Z,1016.80
2018-05-18T08:29:11.136Z,1017.27
2018-05-18T08:30:11.123Z,1016.92
2018-05-18T08:31:11.106Z,1016.50
2018-05-18T08:32:11.105Z,1016.38
2018-05-18T08:33:11.091Z,1016.40
2018-05-18T08:34:11.075Z,1016.41
2018-05-18T08:35:11.063Z,1016.36
2018-05-18T08:36:11.052Z,1016.33
2018-05-18T08:37:11.052Z,1016.28
2018-05-18T08:38:11.029Z,1016.46
2018-05-18T08:39:11.109Z,1016.38
2018-05-18T08:40:11.012Z,1016.79
2018-05-18T08:41:10.997Z,1017.22
2018-05-18T08:42:10.985Z,1016.47
2018-05-18T08:43:10.988Z,1017.30
2018-05-18T08:44:10.972Z,1017.21
2018-05-18T08:45:10.956Z,1017.14
2018-05-18T08:46:10.952Z,1016.99
2018-05-18T08:47:10.953Z,1017.16
2018-05-18T08:48:10.930Z,1017.18
2018-05-18T08:49:10.940Z,1017.07
2018-05-18T08:50:10.911Z,1017.03
2018-05-18T08:51:10.908Z,1016.71
2018-05-18T08:52:10.899Z,1016.43
2018-05-18T08:53:11.056Z,1016.42
2018-05-18T08:54:10.880Z,1016.39
2018-05-18T08:55:10.972Z,1016.40
2018-05-18T08:56:10.874Z,1016.40
2018-05-18T08:57:10.868Z,1016.45
2018-05-18T08:58:10.852Z,1016.43
2018-05-18T08:59:10.849Z,1017.06
2018-05-18T09:00:10.841Z,1016.49
2018-05-18T09:01:10.843Z,1016.49
2018-05-18T09:02:10.818Z,1016.49
2018-05-18T09:03:10.808Z,1016.61
2018-05-18T09:04:10.808Z,1017.06
2018-05-18T09:05:10.792Z,1017.02
2018-05-18T09:06:10.789Z,1016.50
2018-05-18T09:07:10.776Z,1016.61
2018-05-18T09:08:10.770Z,1017.03
2018-05-18T09:09:10.757Z,1016.92
2018-05-18T09:10:10.766Z,1016.88
2018-05-18T09:11:10.746Z,1016.96
2018-05-18T09:12:10.745Z,1016.98
2018-05-18T09:13:10.737Z,1016.91
2018-05-18T09:14:10.732Z,1016.96
2018-05-18T09:15:10.721Z,1016.95
2018-05-18T09:16:10.715Z,1016.92
2018-05-18T09:17:10.751Z,1016.89
2018-05-18T09:18:10.709Z,1016.74
2018-05-18T09:19:10.701Z,1016.90
2018-05-18T09:20:10.693Z,1016.87
2018-05-18T09:21:10.693Z,1016.88
2018-05-18T09:22:10.677Z,1016.76
2018-05-18T09:23:10.681Z,1016.68
2018-05-18T09:24:10.670Z,1016.55
2018-05-18T09:25:10.678Z,1016.43
2018-05-18T09:26:10.662Z,1016.46
2018-05-18T09:27:10.665Z,1016.42
2018-05-18T09:28:10.649Z,1016.71
2018-05-18T09:29:10.644Z,1016.51
2018-05-18T09:30:10.637Z,1016.43
2018-05-18T09:31:10.628Z,1016.58
2018-05-18T09:32:10.628Z,1016.67
2018-05-18T09:33:10.624Z,1016.40
2018-05-18T09:34:10.703Z,1016.38
2018-05-18T09:35:10.607Z,1016.35
2018-05-18T09:36:10.602Z,1016.40
2018-05-18T09:37:10.593Z,1016.45
2018-05-18T09:38:10.592Z,1016.48
2018-05-18T09:39:10.578Z,1016.62
2018-05-18T09:40:10.572Z,1016.64
2018-05-18T09:41:10.557Z,1016.55
2018-05-18T09:42:10.557Z,1016.52
2018-05-18T09:43:10.554Z,1016.56
2018-05-18T09:44:10.535Z,1016.56
2018-05-18T09:45:10.610Z,1016.53
2018-05-18T09:46:10.525Z,1016.55
2018-05-18T09:47:10.527Z,1016.57
2018-05-18T09:48:10.513Z,1016.53
2018-05-18T09:49:10.500Z,1016.54
2018-05-18T09:50:10.492Z,1016.47
2018-05-18T09:51:10.490Z,1016.45
2018-05-18T09:52:10.486Z,1016.32
2018-05-18T09:53:10.477Z,1016.28
2018-05-18T09:54:10.508Z,1016.26
2018-05-18T09:55:10.628Z,1016.33
2018-05-18T09:56:10.461Z,1016.39
2018-05-18T09:57:10.452Z,1016.50
2018-05-18T09:58:10.439Z,1016.46
2018-05-18T09:59:10.429Z,1016.43
2018-05-18T10:00:10.427Z,1016.26
2018-05-18T10:01:10.416Z,1016.26
2018-05-18T10:02:10.408Z,1016.26
2018-05-18T10:03:10.404Z,1016.46
2018-05-18T10:04:10.394Z,1016.45
2018-05-18T10:05:10.391Z,1016.30
2018-05-18T10:06:10.381Z,1016.25
2018-05-18T10:07:10.375Z,1016.44
2018-05-18T10:08:10.362Z,1016.37
2018-05-18T10:09:10.362Z,1016.37
2018-05-18T10:10:10.353Z,1016.24
2018-05-18T10:11:10.366Z,1016.25
2018-05-18T10:12:10.334Z,1016.41
2018-05-18T10:13:10.329Z,1016.44
2018-05-18T10:14:10.324Z,1016.35
2018-05-18T10:15:10.309Z,1016.25
2018-05-18T10:16:10.320Z,1016.35
2018-05-18T10:17:10.289Z,1016.32
2018-05-18T10:18:10.288Z,1016.49
2018-05-18T10:19:10.275Z,1016.47
2018-05-18T10:20:10.270Z,1016.41
2018-05-18T10:21:10.259Z,1016.36
2018-05-18T10:22:10.254Z,1016.41
2018-05-18T10:23:10.239Z,1016.40
2018-05-18T10:24:10.238Z,1016.29
2018-05-18T10:25:10.227Z,1016.36
2018-05-18T10:26:10.219Z,1016.36
2018-05-18T10:27:10.210Z,1016.23
2018-05-18T10:28:10.209Z,1016.27
2018-05-18T10:29:10.254Z,1016.38
2018-05-18T10:30:10.190Z,1016.35
2018-05-18T10:31:10.178Z,1016.38
2018-05-18T10:32:10.167Z,1016.26
2018-05-18T10:33:10.157Z,1016.31
2018-05-18T10:34:10.155Z,1016.44
2018-05-18T10:35:10.143Z,1016.41
2018-05-18T10:36:10.139Z,1016.45
2018-05-18T10:37:10.123Z,1016.45
2018-05-18T10:38:10.122Z,1016.39
2018-05-18T10:39:10.110Z,1016.34
2018-05-18T10:40:10.104Z,1016.31
2018-05-18T10:41:10.092Z,1016.31
2018-05-18T10:42:10.091Z,1016.33
2018-05-18T10:43:10.081Z,1016.41
2018-05-18T10:44:10.062Z,1016.28
2018-05-18T10:45:10.062Z,1016.33
2018-05-18T10:46:10.051Z,1016.30
2018-05-18T10:47:10.044Z,1016.24
2018-05-18T10:48:10.035Z,1016.26
2018-05-18T10:49:10.027Z,1016.27
2018-05-18T10:50:10.014Z,1016.23
2018-05-18T10:51:10.008Z,1016.20
2018-05-18T10:52:09.998Z,1016.22
2018-05-18T10:53:10.043Z,1016.35
2018-05-18T10:54:09.982Z,1016.35
2018-05-18T10:55:09.967Z,1016.28
2018-05-18T10:56:09.963Z,1016.30
2018-05-18T10:57:09.948Z,1016.33
2018-05-18T10:58:09.941Z,1016.26
2018-05-18T10:59:09.934Z,1016.31
2018-05-18T11:00:10.078Z,1016.30
2018-05-18T11:01:09.915Z,1016.33
2018-05-18T11:02:09.960Z,1016.23
2018-05-18T11:03:09.899Z,1016.18
2018-05-18T11:04:09.909Z,1016.17
2018-05-18T11:05:09.883Z,1016.14
2018-05-18T11:06:09.922Z,1016.14
2018-05-18T11:07:09.860Z,1016.27
2018-05-18T11:08:09.896Z,1016.26
2018-05-18T11:09:09.845Z,1016.29
2018-05-18T11:10:09.933Z,1016.26
2018-05-18T11:11:09.823Z,1016.24
2018-05-18T11:12:09.822Z,1016.24
2018-05-18T11:13:09.811Z,1016.19
2018-05-18T11:14:09.879Z,1016.26
2018-05-18T11:15:09.791Z,1016.11
2018-05-18T11:16:09.833Z,1016.16
2018-05-18T11:17:09.778Z,1016.11
2018-05-18T11:18:09.763Z,1016.20
2018-05-18T11:19:09.833Z,1016.18
2018-05-18T11:20:09.787Z,1016.29
2018-05-18T11:21:09.736Z,1016.30
2018-05-18T11:22:09.724Z,1016.22
2018-05-18T11:23:09.718Z,1016.23
2018-05-18T11:24:09.712Z,1016.15
2018-05-18T11:25:09.701Z,1016.19
2018-05-18T11:26:09.686Z,1016.16
2018-05-18T11:27:09.676Z,1016.16
2018-05-18T11:28:09.670Z,1016.16
2018-05-18T11:29:09.665Z,1016.13
2018-05-18T11:30:09.658Z,1016.15
2018-05-18T11:31:09.652Z,1016.18
2018-05-18T11:32:09.630Z,1016.08
2018-05-18T11:33:09.669Z,1015.99
2018-05-18T11:34:09.620Z,1016.13
2018-05-18T11:35:09.607Z,1016.14
2018-05-18T11:36:09.601Z,1016.20
2018-05-18T11:37:09.595Z,1016.08
2018-05-18T11:38:09.598Z,1016.05
2018-05-18T11:39:09.639Z,1016.01
2018-05-18T11:40:09.565Z,1016.10
2018-05-18T11:41:09.558Z,1016.11
2018-05-18T11:42:09.546Z,1016.10
2018-05-18T11:43:09.553Z,1016.05
2018-05-18T11:44:09.532Z,1015.99
2018-05-18T11:45:09.527Z,1015.97
2018-05-18T11:46:09.521Z,1015.96
2018-05-18T11:47:09.505Z,1015.98
2018-05-18T11:48:09.509Z,1015.85
2018-05-18T11:49:09.489Z,1015.92
2018-05-18T11:50:09.489Z,1015.96
2018-05-18T11:51:09.462Z,1015.95
2018-05-18T11:52:09.461Z,1016.00
2018-05-18T11:53:09.452Z,1015.95
2018-05-18T11:54:09.443Z,1015.99
2018-05-18T11:55:09.429Z,1015.96
2018-05-18T11:56:09.423Z,1015.96
2018-05-18T11:57:09.413Z,1015.86
2018-05-18T11:58:09.413Z,1015.94
2018-05-18T11:59:09.398Z,1015.84
2018-05-18T12:00:09.384Z,1015.88
2018-05-18T12:01:09.382Z,1015.91
2018-05-18T12:02:09.372Z,1015.89
2018-05-18T12:03:09.362Z,1015.90
2018-05-18T12:04:09.358Z,1015.89
2018-05-18T12:05:09.347Z,1015.88
2018-05-18T12:06:09.330Z,1015.85